Neptune Antlia — S6BE — position and weather

sailwx.info

Track history (hours):
 
Tides and Currents Weather Stations Pressure Air Temp Water Temp Dewpoint Dewpoint Depression Visibility Wind Speed Wind Dir Waves Ship Positions

Neptune Antlia

Last reported at 2016-Feb-13 08:33 UTC. Time now 2016-Feb-13 08:43 UTC.
Position N 53°55' E 009°12'.

Type: Cargo ship. MMSI: 563737000.

Date/timePositionNaut miles runAvg speedWind from/ knotsBaromVisibWave heightAir tempDewpointWater temp
2016-Feb-13 08:33N 53°55' E 009°12'0 0.0
2016-Feb-13 07:33N 53°55' E 009°12'0 0.0
2016-Feb-13 06:33N 53°55' E 009°12'0 0.0
2016-Feb-13 05:33N 53°55' E 009°12'0 0.0
2016-Feb-13 04:33N 53°55' E 009°12'0 0.0
2016-Feb-13 03:33N 53°55' E 009°12'0 0.0
2016-Feb-13 02:33N 53°55' E 009°12'0 0.0
2016-Feb-13 01:33N 53°55' E 009°12'0 0.0
2016-Feb-13 00:33N 53°55' E 009°12'0 0.0
2016-Feb-12 23:33N 53°55' E 009°12'0 0.0
2016-Feb-12 22:33N 53°55' E 009°12'0 0.0
2016-Feb-12 21:33N 53°55' E 009°12'0 0.0
2016-Feb-12 20:33N 53°55' E 009°12'0 0.0
2016-Feb-12 19:33N 53°55' E 009°12'0 0.0
2016-Feb-12 18:33N 53°55' E 009°12'0 0.0
2016-Feb-12 17:33N 53°55' E 009°12'0 0.0
2016-Feb-12 16:33N 53°55' E 009°12'0 0.0
2016-Feb-12 15:33N 53°55' E 009°12'0 0.0
2016-Feb-12 14:33N 53°55' E 009°12'0 0.0
2016-Feb-12 13:33N 53°55' E 009°12'0 0.0
2016-Feb-12 12:30N 53°55' E 009°12'0 0.0
2016-Feb-12 11:30N 53°55' E 009°12'0 0.0
2016-Feb-12 10:33N 53°55' E 009°12'0 0.0
2016-Feb-12 09:32N 53°55' E 009°12'0 0.0
2016-Feb-12 08:33N 53°55' E 009°12'0 0.0
2016-Feb-12 07:30N 53°55' E 009°12'0 0.0
2016-Feb-12 06:33N 53°55' E 009°12'0 0.0
2016-Feb-12 05:33N 53°55' E 009°12'0 0.1
2016-Feb-12 04:33N 53°55' E 009°12'2 2.4
2016-Feb-12 03:33N 53°54' E 009°09'1 1.1
2016-Feb-12 02:33N 53°53' E 009°07'1 0.8
2016-Feb-12 01:33N 53°53' E 009°06'3 3.1
2016-Feb-12 00:33N 53°51' E 009°01'1413.9
2016-Feb-11 23:34N 53°56' E 008°39'1716.6
2016-Feb-11 22:34N 53°59' E 008°11'4 4.2
2016-Feb-11 21:33N 54°04' E 008°12'0 0.1
2016-Feb-11 20:32N 54°04' E 008°12'0 0.0
2016-Feb-11 19:32N 54°04' E 008°12'0 0.2
2016-Feb-11 18:32N 54°03' E 008°12'0 0.0
2016-Feb-11 17:32N 54°03' E 008°12'0 0.1
2016-Feb-11 16:32N 54°03' E 008°12'0 0.1
2016-Feb-11 15:32N 54°04' E 008°12'0 0.0
2016-Feb-11 14:32N 54°04' E 008°12'0 0.0
2016-Feb-11 13:31N 54°04' E 008°12'0 0.0
2016-Feb-11 12:31N 54°04' E 008°12'0 0.0
2016-Feb-11 11:31N 54°04' E 008°12'0 0.0
2016-Feb-11 10:31N 54°04' E 008°12'0 0.0
2016-Feb-11 09:31N 54°04' E 008°12'0 0.0
2016-Feb-11 08:31N 54°04' E 008°12'0 0.1
2016-Feb-11 07:31N 54°04' E 008°12'0 0.0
2016-Feb-11 06:31N 54°04' E 008°12'0 0.1
2016-Feb-11 05:31N 54°03' E 008°12'0 0.1
2016-Feb-11 04:31N 54°04' E 008°12'0 0.0
2016-Feb-11 03:31N 54°04' E 008°12'0 0.0
2016-Feb-11 02:31N 54°04' E 008°12'0 0.0
2016-Feb-11 01:31N 54°04' E 008°12'0 0.0
2016-Feb-11 00:31N 54°04' E 008°12'0 0.0
2016-Feb-10 23:31N 54°04' E 008°12'0 0.0
2016-Feb-10 22:31N 54°04' E 008°12'0 0.0
2016-Feb-10 21:31N 54°04' E 008°12'0 0.0
2016-Feb-10 20:31N 54°04' E 008°12'0 0.0
2016-Feb-10 19:28N 54°04' E 008°12'0 0.1
2016-Feb-10 18:31N 54°04' E 008°12'0 0.1
2016-Feb-10 17:28N 54°04' E 008°12'0 0.0
2016-Feb-10 16:31N 54°04' E 008°12'0 0.0
2016-Feb-10 15:31N 54°04' E 008°12'0 0.1
2016-Feb-10 14:31N 54°04' E 008°12'0 0.0
2016-Feb-10 13:31N 54°04' E 008°12'0 0.0
2016-Feb-10 12:31N 54°04' E 008°12'0 0.0
2016-Feb-10 11:31N 54°04' E 008°12'0 0.0
2016-Feb-10 10:31N 54°04' E 008°12'0 0.0
2016-Feb-10 09:31N 54°04' E 008°12'0 0.0
2016-Feb-10 08:31N 54°04' E 008°12'0 0.0
2016-Feb-10 07:31N 54°04' E 008°12'0 0.0
2016-Feb-10 06:31N 54°04' E 008°12'0 0.0
2016-Feb-10 05:31N 54°04' E 008°12'0 0.1
2016-Feb-10 04:31N 54°04' E 008°12'0 0.0
2016-Feb-10 03:31N 54°04' E 008°12'0 0.1
2016-Feb-10 02:33N 54°04' E 008°12'0 0.1
2016-Feb-10 01:33N 54°04' E 008°12'0 0.1
2016-Feb-10 00:34N 54°03' E 008°12'0 0.1
2016-Feb-09 23:33N 54°04' E 008°12'0 0.0
2016-Feb-09 22:30N 54°04' E 008°12'0 0.0
2016-Feb-09 21:33N 54°04' E 008°12'0 0.1
2016-Feb-09 20:33N 54°04' E 008°12'0 0.1
2016-Feb-09 19:30N 54°04' E 008°12'0 0.1
2016-Feb-09 18:33N 54°04' E 008°12'0 0.1
2016-Feb-09 17:33N 54°04' E 008°12'0 0.0
2016-Feb-09 16:33N 54°04' E 008°12'1 0.9
2016-Feb-09 15:33N 54°04' E 008°11'2 2.5
2016-Feb-09 14:33N 54°07' E 008°09'0 0.5
2016-Feb-09 13:33N 54°06' E 008°09'1 0.9
2016-Feb-09 12:33N 54°06' E 008°08'1 1.0
2016-Feb-09 11:33N 54°06' E 008°10'1 0.8
2016-Feb-09 10:33N 54°07' E 008°10'1 1.0
2016-Feb-09 09:33N 54°06' E 008°11'1 1.2
2016-Feb-09 08:33N 54°05' E 008°12'1 1.2
2016-Feb-09 07:33N 54°06' E 008°12'1 0.8
2016-Feb-09 06:33N 54°06' E 008°13'1 1.5
2016-Feb-09 05:33N 54°06' E 008°10'1 1.0
2016-Feb-09 04:33N 54°06' E 008°12'1 1.1
2016-Feb-09 03:33N 54°05' E 008°11'1 1.1
2016-Feb-09 02:33N 54°05' E 008°10'1110.8
2016-Feb-09 01:33N 54°05' E 007°51'1313.1
2016-Feb-09 00:33N 54°11' E 007°31'1312.7
2016-Feb-08 23:34N 54°22' E 007°20'1211.9
2016-Feb-08 22:33N 54°33' E 007°13'6110.2
2016-Feb-08 16:32N 55°32' E 006°49'1210.2
2016-Feb-08 15:24N 55°43' E 006°57'84 9.2
2016-Feb-08 06:16N 57°00' E 007°56'6 7.1
2016-Feb-08 05:29N 57°05' E 008°01'8 8.4
2016-Feb-08 04:32N 57°09' E 008°14'10 9.6
2016-Feb-08 03:32N 57°12' E 008°30'1110.7
2016-Feb-08 02:32N 57°17' E 008°48'1110.9
2016-Feb-08 01:33N 57°25' E 009°02'1111.2
2016-Feb-08 00:32N 57°32' E 009°18'1111.3
2016-Feb-07 23:33N 57°39' E 009°34'1111.2
2016-Feb-07 22:32N 57°47' E 009°49'1110.8
2016-Feb-07 21:33N 57°58' E 009°54'1111.6
2016-Feb-07 20:34N 58°09' E 009°52'4912.1
2016-Feb-07 16:29N 58°58' E 009°46'7 6.0
2016-Feb-07 15:22N 59°04' E 009°39'3 3.3
2016-Feb-07 14:21N 59°07' E 009°37'0 0.0
2016-Feb-07 09:15N 59°07' E 009°37'0 0.0
2016-Feb-07 07:30N 59°07' E 009°37'0 0.0
2016-Feb-07 06:30N 59°07' E 009°37'0 0.0
2016-Feb-07 04:30N 59°07' E 009°37'0 0.0
2016-Feb-07 00:29N 59°07' E 009°37'0 0.0
2016-Feb-06 23:29N 59°07' E 009°37'0 0.0
2016-Feb-06 22:29N 59°07' E 009°37'0 0.0
2016-Feb-06 21:20N 59°07' E 009°37'0 0.0
2016-Feb-06 13:08N 59°07' E 009°37'0 0.0
2016-Feb-06 09:14N 59°07' E 009°37'0 0.0
2016-Feb-06 06:14N 59°07' E 009°37'0 0.0
2016-Feb-06 05:14N 59°07' E 009°37'0 0.0
2016-Feb-06 04:32N 59°07' E 009°37'0 0.0
2016-Feb-06 00:29N 59°07' E 009°37'0 0.0
2016-Feb-05 22:05N 59°07' E 009°37'0 0.0
2016-Feb-05 12:10N 59°07' E 009°37'0 0.0
2016-Feb-05 11:22N 59°07' E 009°37'0 0.0
2016-Feb-05 10:25N 59°07' E 009°37'0 0.0
2016-Feb-05 08:10N 59°07' E 009°37'0 0.0
2016-Feb-05 07:13N 59°07' E 009°37'0 0.0
2016-Feb-05 06:28N 59°07' E 009°37'0 0.0
2016-Feb-05 04:25N 59°07' E 009°37'0 0.0
2016-Feb-05 03:28N 59°07' E 009°37'0 0.0
2016-Feb-05 02:31N 59°07' E 009°37'0 0.0
2016-Feb-05 00:16N 59°07' E 009°37'0 0.0
2016-Feb-04 23:28N 59°07' E 009°37'0 0.0
2016-Feb-04 22:31N 59°07' E 009°37'0 0.0
2016-Feb-04 21:31N 59°07' E 009°37'0 0.0
2016-Feb-04 18:31N 59°07' E 009°37'0 0.1
2016-Feb-04 14:18N 59°07' E 009°37'0 0.0
2016-Feb-04 13:09N 59°07' E 009°37'0 0.0
2016-Feb-04 12:15N 59°07' E 009°37'0 0.0
2016-Feb-04 11:12N 59°07' E 009°37'0 0.0
2016-Feb-04 10:27N 59°07' E 009°37'0 0.0
2016-Feb-04 08:29N 59°07' E 009°37'0 0.0
2016-Feb-04 05:17N 59°07' E 009°37'0 0.0
2016-Feb-04 03:17N 59°07' E 009°37'0 0.0
2016-Feb-04 02:17N 59°07' E 009°37'0 0.0
2016-Feb-04 00:32N 59°07' E 009°37'0 0.0
2016-Feb-03 23:20N 59°07' E 009°37'0 0.0
2016-Feb-03 22:26N 59°07' E 009°37'0 0.0
2016-Feb-03 21:23N 59°07' E 009°37'0 0.0
2016-Feb-03 20:26N 59°07' E 009°37'0 0.0
2016-Feb-03 18:32N 59°07' E 009°37'0 0.0
2016-Feb-03 17:20N 59°07' E 009°37'0 0.0
2016-Feb-03 13:32N 59°07' E 009°37'  
Track history (hours):
 
Tides and Currents Weather Stations Pressure Air Temp Water Temp Dewpoint Dewpoint Depression Visibility Wind Speed Wind Dir Waves Ship Positions

Neptune Antlia

Last reported at 2016-Feb-13 08:33 UTC. Time now 2016-Feb-13 08:43 UTC.
Position N 53°55' E 009°12'.

Type: Cargo ship. MMSI: 563737000.

Date/timePositionNaut miles runAvg speedWind from/ knotsBaromVisibWave heightAir tempDewpointWater temp
2016-Feb-13 08:33N 53°55' E 009°12'0 0.0
2016-Feb-13 07:33N 53°55' E 009°12'0 0.0
2016-Feb-13 06:33N 53°55' E 009°12'0 0.0
2016-Feb-13 05:33N 53°55' E 009°12'0 0.0
2016-Feb-13 04:33N 53°55' E 009°12'0 0.0
2016-Feb-13 03:33N 53°55' E 009°12'0 0.0
2016-Feb-13 02:33N 53°55' E 009°12'0 0.0
2016-Feb-13 01:33N 53°55' E 009°12'0 0.0
2016-Feb-13 00:33N 53°55' E 009°12'0 0.0
2016-Feb-12 23:33N 53°55' E 009°12'0 0.0
2016-Feb-12 22:33N 53°55' E 009°12'0 0.0
2016-Feb-12 21:33N 53°55' E 009°12'0 0.0
2016-Feb-12 20:33N 53°55' E 009°12'0 0.0
2016-Feb-12 19:33N 53°55' E 009°12'0 0.0
2016-Feb-12 18:33N 53°55' E 009°12'0 0.0
2016-Feb-12 17:33N 53°55' E 009°12'0 0.0
2016-Feb-12 16:33N 53°55' E 009°12'0 0.0
2016-Feb-12 15:33N 53°55' E 009°12'0 0.0
2016-Feb-12 14:33N 53°55' E 009°12'0 0.0
2016-Feb-12 13:33N 53°55' E 009°12'0 0.0
2016-Feb-12 12:30N 53°55' E 009°12'0 0.0
2016-Feb-12 11:30N 53°55' E 009°12'0 0.0
2016-Feb-12 10:33N 53°55' E 009°12'0 0.0
2016-Feb-12 09:32N 53°55' E 009°12'0 0.0
2016-Feb-12 08:33N 53°55' E 009°12'0 0.0
2016-Feb-12 07:30N 53°55' E 009°12'0 0.0
2016-Feb-12 06:33N 53°55' E 009°12'0 0.0
2016-Feb-12 05:33N 53°55' E 009°12'0 0.1
2016-Feb-12 04:33N 53°55' E 009°12'2 2.4
2016-Feb-12 03:33N 53°54' E 009°09'1 1.1
2016-Feb-12 02:33N 53°53' E 009°07'1 0.8
2016-Feb-12 01:33N 53°53' E 009°06'3 3.1
2016-Feb-12 00:33N 53°51' E 009°01'1413.9
2016-Feb-11 23:34N 53°56' E 008°39'1716.6
2016-Feb-11 22:34N 53°59' E 008°11'4 4.2
2016-Feb-11 21:33N 54°04' E 008°12'0 0.1
2016-Feb-11 20:32N 54°04' E 008°12'0 0.0
2016-Feb-11 19:32N 54°04' E 008°12'0 0.2
2016-Feb-11 18:32N 54°03' E 008°12'0 0.0
2016-Feb-11 17:32N 54°03' E 008°12'0 0.1
2016-Feb-11 16:32N 54°03' E 008°12'0 0.1
2016-Feb-11 15:32N 54°04' E 008°12'0 0.0
2016-Feb-11 14:32N 54°04' E 008°12'0 0.0
2016-Feb-11 13:31N 54°04' E 008°12'0 0.0
2016-Feb-11 12:31N 54°04' E 008°12'0 0.0
2016-Feb-11 11:31N 54°04' E 008°12'0 0.0
2016-Feb-11 10:31N 54°04' E 008°12'0 0.0
2016-Feb-11 09:31N 54°04' E 008°12'0 0.0
2016-Feb-11 08:31N 54°04' E 008°12'0 0.1
2016-Feb-11 07:31N 54°04' E 008°12'0 0.0
2016-Feb-11 06:31N 54°04' E 008°12'0 0.1
2016-Feb-11 05:31N 54°03' E 008°12'0 0.1
2016-Feb-11 04:31N 54°04' E 008°12'0 0.0
2016-Feb-11 03:31N 54°04' E 008°12'0 0.0
2016-Feb-11 02:31N 54°04' E 008°12'0 0.0
2016-Feb-11 01:31N 54°04' E 008°12'0 0.0
2016-Feb-11 00:31N 54°04' E 008°12'0 0.0
2016-Feb-10 23:31N 54°04' E 008°12'0 0.0
2016-Feb-10 22:31N 54°04' E 008°12'0 0.0
2016-Feb-10 21:31N 54°04' E 008°12'0 0.0
2016-Feb-10 20:31N 54°04' E 008°12'0 0.0
2016-Feb-10 19:28N 54°04' E 008°12'0 0.1
2016-Feb-10 18:31N 54°04' E 008°12'0 0.1
2016-Feb-10 17:28N 54°04' E 008°12'0 0.0
2016-Feb-10 16:31N 54°04' E 008°12'0 0.0
2016-Feb-10 15:31N 54°04' E 008°12'0 0.1
2016-Feb-10 14:31N 54°04' E 008°12'0 0.0
2016-Feb-10 13:31N 54°04' E 008°12'0 0.0
2016-Feb-10 12:31N 54°04' E 008°12'0 0.0
2016-Feb-10 11:31N 54°04' E 008°12'0 0.0
2016-Feb-10 10:31N 54°04' E 008°12'0 0.0
2016-Feb-10 09:31N 54°04' E 008°12'0 0.0
2016-Feb-10 08:31N 54°04' E 008°12'0 0.0
2016-Feb-10 07:31N 54°04' E 008°12'0 0.0
2016-Feb-10 06:31N 54°04' E 008°12'0 0.0
2016-Feb-10 05:31N 54°04' E 008°12'0 0.1
2016-Feb-10 04:31N 54°04' E 008°12'0 0.0
2016-Feb-10 03:31N 54°04' E 008°12'0 0.1
2016-Feb-10 02:33N 54°04' E 008°12'0 0.1
2016-Feb-10 01:33N 54°04' E 008°12'0 0.1
2016-Feb-10 00:34N 54°03' E 008°12'0 0.1
2016-Feb-09 23:33N 54°04' E 008°12'0 0.0
2016-Feb-09 22:30N 54°04' E 008°12'0 0.0
2016-Feb-09 21:33N 54°04' E 008°12'0 0.1
2016-Feb-09 20:33N 54°04' E 008°12'0 0.1
2016-Feb-09 19:30N 54°04' E 008°12'0 0.1
2016-Feb-09 18:33N 54°04' E 008°12'0 0.1
2016-Feb-09 17:33N 54°04' E 008°12'0 0.0
2016-Feb-09 16:33N 54°04' E 008°12'1 0.9
2016-Feb-09 15:33N 54°04' E 008°11'2 2.5
2016-Feb-09 14:33N 54°07' E 008°09'0 0.5
2016-Feb-09 13:33N 54°06' E 008°09'1 0.9
2016-Feb-09 12:33N 54°06' E 008°08'1 1.0
2016-Feb-09 11:33N 54°06' E 008°10'1 0.8
2016-Feb-09 10:33N 54°07' E 008°10'1 1.0
2016-Feb-09 09:33N 54°06' E 008°11'1 1.2
2016-Feb-09 08:33N 54°05' E 008°12'1 1.2
2016-Feb-09 07:33N 54°06' E 008°12'1 0.8
2016-Feb-09 06:33N 54°06' E 008°13'1 1.5
2016-Feb-09 05:33N 54°06' E 008°10'1 1.0
2016-Feb-09 04:33N 54°06' E 008°12'1 1.1
2016-Feb-09 03:33N 54°05' E 008°11'1 1.1
2016-Feb-09 02:33N 54°05' E 008°10'1110.8
2016-Feb-09 01:33N 54°05' E 007°51'1313.1
2016-Feb-09 00:33N 54°11' E 007°31'1312.7
2016-Feb-08 23:34N 54°22' E 007°20'1211.9
2016-Feb-08 22:33N 54°33' E 007°13'6110.2
2016-Feb-08 16:32N 55°32' E 006°49'1210.2
2016-Feb-08 15:24N 55°43' E 006°57'84 9.2
2016-Feb-08 06:16N 57°00' E 007°56'6 7.1
2016-Feb-08 05:29N 57°05' E 008°01'8 8.4
2016-Feb-08 04:32N 57°09' E 008°14'10 9.6
2016-Feb-08 03:32N 57°12' E 008°30'1110.7
2016-Feb-08 02:32N 57°17' E 008°48'1110.9
2016-Feb-08 01:33N 57°25' E 009°02'1111.2
2016-Feb-08 00:32N 57°32' E 009°18'1111.3
2016-Feb-07 23:33N 57°39' E 009°34'1111.2
2016-Feb-07 22:32N 57°47' E 009°49'1110.8
2016-Feb-07 21:33N 57°58' E 009°54'1111.6
2016-Feb-07 20:34N 58°09' E 009°52'4912.1
2016-Feb-07 16:29N 58°58' E 009°46'7 6.0
2016-Feb-07 15:22N 59°04' E 009°39'3 3.3
2016-Feb-07 14:21N 59°07' E 009°37'0 0.0
2016-Feb-07 09:15N 59°07' E 009°37'0 0.0
2016-Feb-07 07:30N 59°07' E 009°37'0 0.0
2016-Feb-07 06:30N 59°07' E 009°37'0 0.0
2016-Feb-07 04:30N 59°07' E 009°37'0 0.0
2016-Feb-07 00:29N 59°07' E 009°37'0 0.0
2016-Feb-06 23:29N 59°07' E 009°37'0 0.0
2016-Feb-06 22:29N 59°07' E 009°37'0 0.0
2016-Feb-06 21:20N 59°07' E 009°37'0 0.0
2016-Feb-06 13:08N 59°07' E 009°37'0 0.0
2016-Feb-06 09:14N 59°07' E 009°37'0 0.0
2016-Feb-06 06:14N 59°07' E 009°37'0 0.0
2016-Feb-06 05:14N 59°07' E 009°37'0 0.0
2016-Feb-06 04:32N 59°07' E 009°37'0 0.0
2016-Feb-06 00:29N 59°07' E 009°37'0 0.0
2016-Feb-05 22:05N 59°07' E 009°37'0 0.0
2016-Feb-05 12:10N 59°07' E 009°37'0 0.0
2016-Feb-05 11:22N 59°07' E 009°37'0 0.0
2016-Feb-05 10:25N 59°07' E 009°37'0 0.0
2016-Feb-05 08:10N 59°07' E 009°37'0 0.0
2016-Feb-05 07:13N 59°07' E 009°37'0 0.0
2016-Feb-05 06:28N 59°07' E 009°37'0 0.0
2016-Feb-05 04:25N 59°07' E 009°37'0 0.0
2016-Feb-05 03:28N 59°07' E 009°37'0 0.0
2016-Feb-05 02:31N 59°07' E 009°37'0 0.0
2016-Feb-05 00:16N 59°07' E 009°37'0 0.0
2016-Feb-04 23:28N 59°07' E 009°37'0 0.0
2016-Feb-04 22:31N 59°07' E 009°37'0 0.0
2016-Feb-04 21:31N 59°07' E 009°37'0 0.0
2016-Feb-04 18:31N 59°07' E 009°37'0 0.1
2016-Feb-04 14:18N 59°07' E 009°37'0 0.0
2016-Feb-04 13:09N 59°07' E 009°37'0 0.0
2016-Feb-04 12:15N 59°07' E 009°37'0 0.0
2016-Feb-04 11:12N 59°07' E 009°37'0 0.0
2016-Feb-04 10:27N 59°07' E 009°37'0 0.0
2016-Feb-04 08:29N 59°07' E 009°37'0 0.0
2016-Feb-04 05:17N 59°07' E 009°37'0 0.0
2016-Feb-04 03:17N 59°07' E 009°37'0 0.0
2016-Feb-04 02:17N 59°07' E 009°37'0 0.0
2016-Feb-04 00:32N 59°07' E 009°37'0 0.0
2016-Feb-03 23:20N 59°07' E 009°37'0 0.0
2016-Feb-03 22:26N 59°07' E 009°37'0 0.0
2016-Feb-03 21:23N 59°07' E 009°37'0 0.0
2016-Feb-03 20:26N 59°07' E 009°37'0 0.0
2016-Feb-03 18:32N 59°07' E 009°37'0 0.0
2016-Feb-03 17:20N 59°07' E 009°37'0 0.0
2016-Feb-03 13:32N 59°07' E 009°37'  

Dump ship's entire track history